This is the latest recevied weather packets stored in our database for station/object EA5JMY-10. If no packets are shown the sender has not sent any weather packets the latest 10 day(s).
| Time | Temp. | Humidity | Pressure | Rain* | Wind** | Luminosity | Snow |
|---|---|---|---|---|---|---|---|
| 1788156590 | 84° F | 40% | 763.9 mmHg | - | - | - | - |
| 1788155690 | 80° F | 45% | 763.8 mmHg | - | - | - | - |
| 1788154790 | 74° F | 57% | 763.7 mmHg | - | - | - | - |
| 1788153889 | 73° F | 61% | 763.6 mmHg | - | - | - | - |
| 1788152989 | 72° F | 65% | 763.6 mmHg | - | - | - | - |
| 1788152089 | 74° F | 61% | 763.5 mmHg | - | - | - | - |
| 1788151189 | 73° F | 70% | 763.5 mmHg | - | - | - | - |
| 1788150289 | 74° F | 69% | 763.6 mmHg | - | - | - | - |
| 1788149389 | 75° F | 70% | 763.6 mmHg | - | - | - | - |
| 1788148489 | 73° F | 72% | 763.6 mmHg | - | - | - | - |
| 1788147589 | 73° F | 72% | 763.5 mmHg | - | - | - | - |
| 1788146689 | 73° F | 71% | 763.5 mmHg | - | - | - | - |
| 1788145788 | 73° F | 71% | 763.6 mmHg | - | - | - | - |
| 1788144888 | 74° F | 71% | 763.5 mmHg | - | - | - | - |
| 1788143988 | 74° F | 70% | 763.5 mmHg | - | - | - | - |
| 1788143088 | 74° F | 70% | 763.6 mmHg | - | - | - | - |
| 1788142187 | 74° F | 69% | 763.6 mmHg | - | - | - | - |
| 1788141285 | 74° F | 67% | 763.6 mmHg | - | - | - | - |
| 1788140385 | 75° F | 64% | 763.6 mmHg | - | - | - | - |
| 1788139484 | 77° F | 60% | 763.5 mmHg | - | - | - | - |
| 1788138584 | 76° F | 63% | 763.5 mmHg | - | - | - | - |
| 1788137684 | 77° F | 64% | 763.6 mmHg | - | - | - | - |
| 1788136784 | 78° F | 65% | 763.6 mmHg | - | - | - | - |
| 1788135884 | 77° F | 67% | 763.5 mmHg | - | - | - | - |
| 1788134984 | 78° F | 65% | 763.6 mmHg | - | - | - | - |
* Rain since midnight (hover to see other rain measurements)
** Current wind speed in m/s (hover to see current wind gust speed)